Latest Weather Observations for Mount Boyce

IDN60801

Issued at 11:33 pm EDT Wednesday 4 March 2015 (issued every 30 minutes, with the page automatically refreshed every 10 minutes)

About weather observations | Map of weather stations | Latest weather observations for NSW | Other Formats
Station Details ID: 063292 Name: MOUNT BOYCE AWS Lat: -33.62 Lon: 150.27 Height: 1080.0 m
Data from the previous 72 hours. | See also: Recent months at Mount Boyce
Date/Time
EDT
Temp
°C
App
Temp
°C
Dew
Point
Rel
Hum
%
Delta-T
°C
Wind Press
QNH
hPa
Press
MSL
hPa
Rain
since 9 am
mm
Dir
 
Spd
km/h
Gust
km/h
Spd
kts
Gust
kts
04/11:30pm 17.9 15.8 11.0 64 3.9 WSW 13 17 7 9 - - 0.0
04/11:00pm 18.5 17.0 13.1 71 3.2 WSW 13 17 7 9 - - 0.0
04/10:30pm 19.1 17.4 12.4 65 3.9 WSW 13 17 7 9 - - 0.0
04/10:00pm 19.6 18.5 13.1 66 3.9 WSW 11 15 6 8 - - 0.0
04/09:30pm 20.1 19.0 13.1 64 4.2 WSW 11 15 6 8 - - 0.0
04/09:00pm 20.4 18.5 10.5 53 5.7 WSW 11 15 6 8 - - 0.0
04/08:30pm 20.3 18.8 10.4 53 5.6 NW 9 17 5 9 - - 0.0
04/08:00pm 19.7 20.7 17.8 89 1.2 NNE 9 11 5 6 - - 0.0
04/07:30pm 20.2 21.3 17.2 83 1.9 NE 7 9 4 5 - - 0.0
04/07:00pm 22.0 22.9 17.6 76 2.8 ENE 9 11 5 6 - - 0.0
04/06:30pm 23.3 24.9 18.2 73 3.3 ENE 7 11 4 6 - - 0.0
04/06:00pm 23.7 25.4 18.6 73 3.4 ENE 7 9 4 5 - - 0.0
04/05:30pm 24.0 25.3 18.4 71 3.7 ENE 9 13 5 7 - - 0.0
04/05:00pm 24.1 25.8 18.5 71 3.7 ENE 7 13 4 7 - - 0.0
04/04:30pm 24.5 25.5 17.7 66 4.4 E 9 15 5 8 - - 0.0
04/04:00pm 23.9 24.7 17.2 66 4.3 E 9 17 5 9 - - 0.0
04/03:30pm 25.0 26.2 18.2 66 4.5 ENE 9 17 5 9 - - 0.0
04/03:00pm 25.8 27.4 18.2 63 5.0 ENE 7 13 4 7 - - 0.0
04/02:30pm 26.0 24.4 12.8 44 8.0 W 13 24 7 13 - - 0.0
04/02:00pm 25.3 23.6 12.5 45 7.7 W 13 22 7 12 - - 0.0
04/01:30pm 23.9 23.1 14.0 54 6.1 WSW 11 17 6 9 - - 0.0
04/01:00pm 24.0 23.5 15.0 57 5.6 WNW 11 19 6 10 - - 0.0
04/12:30pm 23.3 23.4 15.6 62 4.9 W 9 15 5 8 - - 0.0
04/12:00pm 22.3 22.9 15.9 67 4.0 NW 7 13 4 7 - - 0.0
04/11:48am 21.8 22.7 16.1 70 3.6 WNW 6 11 3 6 - - 0.0
04/11:30am 20.6 22.2 16.0 75 2.9 W 2 7 1 4 - - 0.0
04/11:03am 20.5 21.1 15.9 75 2.9 ENE 7 11 4 6 - - 0.0
04/11:00am 20.7 21.7 16.3 76 2.8 ENE 6 11 3 6 - - 0.0
04/10:30am 19.8 20.8 16.3 80 2.2 NE 6 11 3 6 - - 0.0
04/10:05am 18.6 18.7 15.5 82 1.9 NE 9 17 5 9 - - 0.0
04/10:00am 18.3 18.0 15.4 83 1.8 NE 11 19 6 10 - - 0.0
04/09:30am 17.1 17.6 15.1 88 1.2 ENE 6 11 3 6 - - 0.0
04/09:00am 16.0 16.2 14.7 92 0.8 NE 7 11 4 6 - - 0.2
04/08:55am 16.2 17.1 15.1 93 0.7 NE 4 9 2 5 - - 0.2
04/08:30am 15.7 16.2 15.1 96 0.4 ENE 6 9 3 5 - - 0.2
04/08:00am 15.3 15.5 14.7 96 0.4 ENE 7 11 4 6 - - 0.2
04/07:30am 15.1 15.2 14.5 96 0.4 ENE 7 15 4 8 - - 0.2
04/07:00am 14.8 14.7 14.0 95 0.5 ENE 7 13 4 7 - - 0.2
04/06:32am 14.6 14.4 13.6 94 0.6 ENE 7 9 4 5 - - 0.2
04/06:31am 14.6 14.4 13.6 94 0.6 ENE 7 9 4 5 - - 0.2
04/06:30am 14.6 14.6 13.5 93 0.6 ENE 6 9 3 5 - - 0.2
04/06:00am 14.7 15.0 13.4 92 0.8 ENE 4 7 2 4 - - 0.2
04/05:30am 14.6 14.0 13.5 93 0.6 ENE 9 13 5 7 - - 0.2
04/05:00am 14.6 15.0 13.6 94 0.6 ENE 4 7 2 4 - - 0.2
04/04:30am 14.3 15.3 13.3 94 0.6 CALM 0 0 0 0 - - 0.2
04/04:00am 14.1 15.0 12.8 92 0.8 CALM 0 0 0 0 - - 0.2
04/03:30am 14.6 15.7 13.5 93 0.6 CALM 0 2 0 1 - - 0.2
04/03:00am 14.5 15.6 13.4 93 0.6 CALM 0 0 0 0 - - 0.2
04/02:30am 14.4 15.4 13.3 93 0.6 CALM 0 0 0 0 - - 0.2
04/02:00am 14.3 14.9 13.0 92 0.8 ENE 2 6 1 3 - - 0.2
04/01:30am 14.4 14.6 13.0 91 0.8 ENE 4 7 2 4 - - 0.2
04/01:11am 14.5 15.4 12.9 90 0.9 CALM 0 4 0 2 - - 0.2
04/01:00am 14.6 15.5 12.8 89 1.0 CALM 0 6 0 3 - - 0.2
04/12:55am 14.8 15.7 13.0 89 1.0 CALM 0 7 0 4 - - 0.2
04/12:30am 15.2 15.8 13.2 88 1.2 ENE 2 7 1 4 - - 0.2
04/12:00am 15.6 16.3 13.4 87 1.3 ENE 2 7 1 4 - - 0.2
 
Date/Time
EDT
Temp
°C
App
Temp
°C
Dew
Point
Rel
Hum
%
Delta-T
°C
Wind Press
QNH
hPa
Press
MSL
hPa
Rain
since 9 am
mm
Dir
 
Spd
km/h
Gust
km/h
Spd
kts
Gust
kts
03/11:30pm 15.7 16.1 13.7 88 1.2 ENE 4 9 2 5 - - 0.2
03/11:00pm 15.8 16.2 13.8 88 1.2 ENE 4 11 2 6 - - 0.2
03/10:30pm 15.8 16.2 13.8 88 1.2 NE 4 13 2 7 - - 0.2
03/10:00pm 15.9 15.6 14.3 90 1.0 ENE 9 13 5 7 - - 0.2
03/09:30pm 16.3 16.5 14.8 91 0.9 NE 7 17 4 9 - - 0.2
03/09:00pm 16.9 16.9 15.2 90 1.0 ENE 9 19 5 10 - - 0.2
03/08:30pm 17.2 16.4 15.2 88 1.2 ENE 13 17 7 9 - - 0.2
03/08:00pm 17.5 16.8 15.3 87 1.3 ENE 13 20 7 11 - - 0.2
03/07:30pm 18.1 17.8 15.4 84 1.7 ENE 11 17 6 9 - - 0.2
03/07:00pm 18.8 18.9 15.5 81 2.0 ENE 9 15 5 8 - - 0.2
03/06:30pm 19.2 19.1 15.9 81 2.1 ENE 11 17 6 9 - - 0.2
03/06:00pm 19.8 19.9 16.4 81 2.1 ENE 11 17 6 9 - - 0.2
03/05:30pm 19.8 19.5 16.4 81 2.1 ENE 13 19 7 10 - - 0.2
03/05:00pm 20.9 20.5 16.3 75 2.9 ENE 13 19 7 10 - - 0.2
03/04:30pm 21.7 21.8 16.4 72 3.4 ENE 11 17 6 9 - - 0.2
03/04:00pm 22.6 23.0 16.2 67 4.1 E 9 15 5 8 - - 0.2
03/03:30pm 24.8 23.8 14.6 53 6.4 WSW 13 22 7 12 - - 0.2
03/03:00pm 25.3 23.5 14.4 50 6.8 WSW 17 28 9 15 - - 0.2
03/02:30pm 26.3 24.8 15.4 51 6.9 W 17 30 9 16 - - 0.2
03/02:00pm 25.5 23.5 15.5 54 6.3 WSW 20 28 11 15 - - 0.2
03/01:30pm 24.3 23.8 15.8 59 5.4 WSW 13 22 7 12 - - 0.2
03/01:00pm 23.9 23.6 15.4 59 5.3 W 11 20 6 11 - - 0.2
03/12:30pm 24.0 24.7 15.5 59 5.4 WNW 6 11 3 6 - - 0.2
03/12:00pm 23.2 22.8 15.3 61 5.0 NW 11 19 6 10 - - 0.2
03/11:30am 21.7 21.3 15.3 67 4.0 WNW 11 19 6 10 - - 0.2
03/11:00am 20.4 19.6 14.1 67 3.8 W 11 17 6 9 - - 0.0
03/10:30am 18.7 17.6 13.1 70 3.3 W 11 17 6 9 - - 0.0
03/10:00am 17.5 16.2 12.6 73 2.9 W 11 19 6 10 - - 0.0
03/09:30am 16.1 15.0 12.1 77 2.3 W 9 13 5 7 - - 0.0
03/09:00am 15.4 14.3 12.0 80 1.9 W 9 13 5 7 - - 0.2
03/08:30am 14.0 12.3 11.3 84 1.5 WNW 11 13 6 7 - - 0.2
03/08:00am 13.9 12.6 11.4 85 1.4 NW 9 15 5 8 - - 0.2
03/07:30am 13.2 11.1 11.3 88 1.1 N 13 17 7 9 - - 0.2
03/07:00am 11.6 9.6 10.3 92 0.7 NNE 11 17 6 9 - - 0.2
03/06:30am 11.7 10.2 10.4 92 0.7 N 9 17 5 9 - - 0.2
03/06:00am 11.5 9.1 10.2 92 0.7 NNE 13 19 7 10 - - 0.2
03/05:30am 11.1 8.7 10.0 93 0.6 N 13 19 7 10 - - 0.2
03/05:00am 10.8 8.8 10.0 95 0.4 NNE 11 19 6 10 - - 0.2
03/04:30am 10.6 8.2 10.1 97 0.3 NE 13 19 7 10 - - 0.2
03/04:00am 10.6 8.2 10.1 97 0.3 NE 13 19 7 10 - - 0.2
03/03:41am 10.7 8.3 10.2 97 0.3 NE 13 19 7 10 - - 0.2
03/03:30am 10.8 8.8 10.3 97 0.3 NE 11 19 6 10 - - 0.2
03/03:22am 10.8 8.8 10.3 97 0.3 NE 11 19 6 10 - - 0.2
03/03:00am 10.9 9.4 10.4 97 0.3 ENE 9 13 5 7 - - 0.0
03/02:30am 11.0 9.5 10.4 96 0.3 ENE 9 13 5 7 - - 0.0
03/02:00am 11.3 9.8 10.7 96 0.3 ENE 9 15 5 8 - - 0.0
03/01:30am 12.0 11.1 11.5 97 0.3 ENE 7 13 4 7 - - 0.0
03/01:00am 12.1 11.5 11.6 97 0.3 ENE 6 13 3 7 - - 0.0
03/12:30am 12.1 11.0 11.8 98 0.2 ENE 9 15 5 8 - - 0.0
03/12:00am 12.2 11.0 11.7 97 0.3 NE 9 20 5 11 - - 0.0
 
Date/Time
EDT
Temp
°C
App
Temp
°C
Dew
Point
Rel
Hum
%
Delta-T
°C
Wind Press
QNH
hPa
Press
MSL
hPa
Rain
since 9 am
mm
Dir
 
Spd
km/h
Gust
km/h
Spd
kts
Gust
kts
02/11:30pm 12.4 11.3 11.9 97 0.3 NE 9 17 5 9 - - 0.0
02/11:00pm 12.6 11.9 12.0 96 0.3 ENE 7 15 4 8 - - 0.0
02/10:30pm 12.6 11.5 11.8 95 0.5 ENE 9 20 5 11 - - 0.0
02/10:08pm 12.9 11.8 12.0 94 0.5 ENE 9 15 5 8 - - 0.0
02/10:00pm 12.9 12.2 12.0 94 0.5 ENE 7 13 4 7 - - 0.0
02/09:30pm 13.1 12.1 12.3 95 0.5 ENE 9 17 5 9 - - 0.0
02/09:00pm 13.1 12.1 12.2 94 0.5 ENE 9 17 5 9 - - 0.0
02/08:30pm 13.0 11.9 11.9 93 0.6 ENE 9 15 5 8 - - 0.0
02/08:00pm 13.4 12.7 12.0 91 0.8 ENE 7 17 4 9 - - 0.0
02/07:30pm 13.9 12.7 11.6 86 1.3 ENE 9 19 5 10 - - 0.0
02/07:00pm 15.3 14.2 12.1 81 1.8 ENE 9 20 5 11 - - 0.0
02/06:30pm 15.9 14.8 12.1 78 2.2 ENE 9 19 5 10 - - 0.0
02/06:00pm 16.3 15.7 13.4 83 1.7 ENE 9 17 5 9 - - 0.0
02/05:30pm 14.5 13.6 12.5 88 1.2 ENE 9 13 5 7 - - 0.0
02/05:00pm 14.5 13.6 12.5 88 1.2 ENE 9 15 5 8 - - 0.0
02/04:30pm 14.5 14.0 12.5 88 1.2 ENE 7 13 4 7 - - 0.0
02/04:00pm 14.4 13.4 12.3 87 1.2 ENE 9 17 5 9 - - 0.0
02/03:30pm 14.5 13.8 12.0 85 1.4 ENE 7 19 4 10 - - 0.0
02/03:00pm 14.9 13.8 12.0 83 1.7 ENE 9 19 5 10 - - 0.0
02/02:30pm 14.2 13.0 11.7 85 1.4 ENE 9 19 5 10 - - 0.0
02/02:00pm 14.8 14.1 12.1 84 1.5 E 7 19 4 10 - - 0.0
02/01:30pm 14.9 14.3 12.2 84 1.6 ENE 7 17 4 9 - - 0.0
02/01:00pm 14.5 13.9 11.6 83 1.6 E 6 11 3 6 - - 0.0
02/12:30pm 14.4 13.1 11.4 82 1.7 ENE 9 15 5 8 - - 0.0
02/12:00pm 14.2 13.3 11.5 84 1.5 E 7 15 4 8 - - 0.0
02/11:30am 13.7 12.3 10.9 83 1.6 E 9 17 5 9 - - 0.0
02/11:00am 13.5 12.6 10.7 83 1.6 E 6 13 3 7 - - 0.0
02/10:30am 13.2 11.7 10.7 85 1.4 E 9 17 5 9 - - 0.0
02/10:00am 13.0 11.9 10.5 85 1.4 ENE 7 17 4 9 - - 0.0
02/09:30am 12.4 11.3 10.5 88 1.0 E 7 15 4 8 - - 0.0
02/09:00am 11.9 11.2 10.0 88 1.0 E 4 9 2 5 - - 9.0
02/08:30am 11.7 10.4 10.1 90 0.9 E 7 13 4 7 - - 9.0
02/08:28am 11.6 10.4 10.2 91 0.8 E 7 20 4 11 - - 9.0
02/08:01am 11.2 9.9 9.9 92 0.7 E 7 13 4 7 - - 9.0
02/08:00am 11.1 10.0 9.9 92 0.6 E 6 13 3 7 - - 9.0
02/07:30am 10.9 9.6 10.0 94 0.5 E 7 17 4 9 - - 9.0
02/07:00am 10.7 9.6 9.8 94 0.5 E 6 13 3 7 - - 9.0
02/06:30am 10.6 9.5 9.8 95 0.4 E 6 11 3 6 - - 9.0
02/06:24am 10.6 9.3 9.8 95 0.4 E 7 20 4 11 - - 9.0
02/06:00am 10.6 8.9 9.8 95 0.4 E 9 20 5 11 - - 9.0
02/05:46am 10.6 9.2 9.7 94 0.5 E 7 17 4 9 - - 9.0
02/05:30am 10.5 9.3 9.6 94 0.5 E 6 11 3 6 - - 9.0
02/05:00am 10.4 9.0 9.5 94 0.5 E 7 13 4 7 - - 9.0
02/04:30am 10.3 8.5 9.4 94 0.5 E 9 13 5 7 - - 9.0
02/04:00am 10.2 8.4 9.3 94 0.5 E 9 19 5 10 - - 9.0
02/03:30am 10.2 7.6 9.3 94 0.5 E 13 22 7 12 - - 9.0
02/03:00am 10.3 8.1 9.2 93 0.6 ESE 11 20 6 11 - - 9.0
02/02:30am 10.4 7.4 9.3 93 0.6 E 15 32 8 17 - - 9.0
02/02:00am 10.6 8.0 9.5 93 0.6 E 13 28 7 15 - - 9.0
02/01:35am 10.6 7.7 9.8 95 0.4 E 15 28 8 15 - - 9.0
02/01:30am 10.7 8.3 10.1 96 0.3 E 13 30 7 16 - - 9.0
02/01:19am 10.9 8.9 10.3 96 0.3 E 11 22 6 12 - - 9.0
02/01:00am 10.9 8.9 10.3 96 0.3 E 11 30 6 16 - - 9.0
02/12:53am 11.0 8.7 10.4 96 0.3 ESE 13 32 7 17 - - 9.0
02/12:33am 11.0 8.7 10.4 96 0.3 E 13 30 7 16 - - 9.0
02/12:30am 11.0 8.3 10.4 96 0.3 E 15 30 8 16 - - 9.0
02/12:00am 11.0 7.9 10.2 95 0.4 E 17 30 9 16 - - 9.0
 
Date/Time
EDT
Temp
°C
App
Temp
°C
Dew
Point
Rel
Hum
%
Delta-T
°C
Wind Press
QNH
hPa
Press
MSL
hPa
Rain
since 9 am
mm
Dir
 
Spd
km/h
Gust
km/h
Spd
kts
Gust
kts
01/11:38pm 11.1 7.6 10.3 95 0.4 E 19 32 10 17 - - 9.0
01/11:32pm 11.1 7.4 10.3 95 0.4 E 20 32 11 17 - - 9.0

Other Formats:

Comma delimited format used in spreadsheet applications
http://www.bom.gov.au/fwo/IDN60801/IDN60801.94743.axf

JavaScript Object Notation format (JSON) in row-major order
http://www.bom.gov.au/fwo/IDN60801/IDN60801.94743.json